Detall de PIREP

Printer-friendly versionPDF version

[2014/06/12 07:11:00]
Flight IATA:CT3103
Pilot Number:042
Company ICAO:CAT
Aircraft Type:F100/A
PAX:48
Aircraft Registration:PFJ
Departing Airport: LEPA
Destination Airport: LIEA
Alternate Airport:LIEO
Online: VATSIM
Route:MORSS UM603 ELSAG
Flight Level:F260
No Slew and time accel
No pause
Crash detect
Detect pilot in Cockpit between each 30 and 45 minutes
07:11 Zero fuel Weight: 81826 Lbs, Fuel Weight: 22689 Lbs
07:11 VATSIM:LEPA 120700Z 06001KT CAVOK 26/12 Q1020 NOSIG
07:11 VATSIM:LIEA 120650Z 01003KT 300V080 CAVOK 26/18 Q1020
07:14 Parking Brakes off
07:17 Take-off
07:17 Take off Weight: 104110 Lbs
07:17 Wind: 064º @ 001 Knots Heading: 059º
07:17 POS N39º 33´ 25´´ E002º 43´ 55´´
07:17 Gear Up: 174 Knots
07:17 Flaps:2 at 174 Knots
07:17 Flaps:1 at 170 Knots
07:17 Flaps:0 at 168 Knots
07:29 TOC
07:29 Fuel Weight: 20578 Lb
07:32 Wind:029º@028 Knots Heading: 072º Ground Speed: 421 Knots Altitude 26250 ft
07:44 TOD
07:44 Fuel Weight: 19006 Lb
07:47 Wind:340º@011 Knots Heading: 073º Ground Speed: 392 Knots Altitude 21696 ft
08:01 Flaps:1 at 191 Knots
08:02 Wind:249º@003 Knots Heading: 048º Ground Speed: 204 Knots Altitude 3038 ft
08:05 Gear Down: 185 Knots
08:05 Flaps:2 at 185 Knots
08:05 Flaps:3 at 183 Knots
08:08 TouchDown:Rate -63 ft/min Speed: 139 Knots
08:08 VATSIM:LIEA 120750Z 35003KT 300V070 CAVOK 28/14 Q1020
08:08 Land
08:08 Wind:046º@003 Knots
08:08 Heading: 203º
08:08 Flight Duration: 00:51
08:08 Landing Weight: 99808 Lbs
08:08 POS N40º 37´ 43´´ E008º 17´ 20´´
08:10 Parking brakes on
08:10 Block to Block Duration: 00:56
08:10 Final Fuel: 17899 Lbls
08:10 Spent Fuel: 4790 Lbls
08:10 Flight Length: 280 NM
08:10 TOD Land Length: 112 NM

Exportar CSV

Powered by Drupal - Modified by Danger4k